Time;durP1;ratioP1;P1;durP2;ratioP2;P2;SDS_P1;SDS_P2;PMS_P1;PMS_P2;Temp;Humidity;BMP_temperature;BMP_pressure;BME280_temperature;BME280_humidity;BME280_pressure;Samples;Min_cycle;Max_cycle;Signal;HPM_P1;HPM_P2
2022/11/28 00:00:21;;;;;;;83.33;43.40;;;;;;;2.25;94.77;99764.69;2279657;78;20893;-80
2022/11/28 00:03:23;;;;;;;78.73;44.83;;;;;;;2.23;94.80;99769.75;2279689;78;20895;-80
2022/11/28 00:06:22;;;;;;;75.67;43.53;;;;;;;2.23;94.87;99767.58;2279731;78;20899;-80
2022/11/28 00:09:22;;;;;;;79.63;43.63;;;;;;;2.22;94.93;99771.84;2279074;78;20942;-80
2022/11/28 00:12:23;;;;;;;75.00;42.60;;;;;;;2.24;94.93;99774.11;2279310;78;21262;-80
2022/11/28 00:15:23;;;;;;;81.80;42.67;;;;;;;2.26;94.97;99774.20;2279282;78;20958;-80
2022/11/28 00:18:23;;;;;;;76.33;42.83;;;;;;;2.30;95.02;99782.59;2279378;78;20914;-81
2022/11/28 00:21:26;;;;;;;78.43;43.07;;;;;;;2.31;94.93;99784.38;2279986;78;20863;-82
2022/11/28 00:24:26;;;;;;;76.40;43.03;;;;;;;2.32;94.89;99783.58;2279787;78;21421;-82
2022/11/28 00:27:27;;;;;;;74.27;42.17;;;;;;;2.31;94.78;99786.95;2279326;78;20950;-81
2022/11/28 00:30:27;;;;;;;79.33;44.17;;;;;;;2.29;94.82;99791.12;2278261;78;20980;-79
2022/11/28 00:33:28;;;;;;;78.03;43.40;;;;;;;2.30;94.87;99798.05;2275365;78;20894;-80
2022/11/28 00:36:28;;;;;;;74.43;42.57;;;;;;;2.31;94.82;99800.23;2275802;78;21310;-80
2022/11/28 00:39:28;;;;;;;74.93;42.23;;;;;;;2.31;94.87;99797.26;2275947;78;20990;-80
2022/11/28 00:42:29;;;;;;;76.40;42.27;;;;;;;2.37;94.89;99786.42;2275988;78;20871;-81
2022/11/28 00:45:29;;;;;;;74.53;43.23;;;;;;;2.36;94.61;99784.64;2247870;78;21349;-81
2022/11/28 00:48:30;;;;;;;72.40;40.03;;;;;;;2.36;94.63;99785.94;2276005;78;20930;-81
2022/11/28 00:51:30;;;;;;;73.57;40.80;;;;;;;2.34;94.55;99785.84;2276179;78;20942;-81
2022/11/28 00:54:30;;;;;;;74.17;40.53;;;;;;;2.34;94.54;99777.22;2276217;78;20935;-82
2022/11/28 00:57:31;;;;;;;78.20;41.50;;;;;;;2.34;94.62;99769.09;2276548;78;21401;-82
2022/11/28 01:00:31;;;;;;;73.57;41.27;;;;;;;2.33;94.37;99765.14;2276740;78;20934;-83
2022/11/28 01:03:34;;;;;;;76.17;41.33;;;;;;;2.31;94.49;99759.01;2254673;78;20938;-80
2022/11/28 01:06:34;;;;;;;74.80;40.80;;;;;;;2.29;94.53;99760.20;2275966;78;20957;-80
2022/11/28 01:09:34;;;;;;;71.07;41.10;;;;;;;2.29;94.53;99760.20;2276102;78;20875;-80
2022/11/28 01:12:35;;;;;;;79.47;42.23;;;;;;;2.26;94.50;99754.88;2276220;78;20906;-81
2022/11/28 01:15:35;;;;;;;76.37;40.17;;;;;;;2.21;94.49;99749.45;2275929;78;21369;-83
2022/11/28 01:18:36;;;;;;;76.83;42.93;;;;;;;2.18;94.65;99747.09;2276466;78;20894;-82
2022/11/28 01:21:36;;;;;;;78.77;43.30;;;;;;;2.15;94.71;99742.66;2276297;78;20891;-80
2022/11/28 01:24:36;;;;;;;78.20;42.80;;;;;;;2.12;95.01;99733.45;2276503;78;20928;-79
2022/11/28 01:27:37;;;;;;;74.53;41.23;;;;;;;2.10;94.82;99729.02;2276554;78;21271;-80
2022/11/28 01:30:37;;;;;;;80.40;43.73;;;;;;;2.05;94.85;99731.32;2276731;78;21402;-79
2022/11/28 01:33:38;;;;;;;82.47;44.23;;;;;;;2.02;95.05;99730.25;2279917;78;20879;-80
2022/11/28 01:36:38;;;;;;;82.87;42.47;;;;;;;1.99;95.33;99721.05;2280055;78;20969;-80
2022/11/28 01:39:39;;;;;;;78.40;42.67;;;;;;;1.94;95.44;99719.89;2280201;78;20927;-78
2022/11/28 01:42:39;;;;;;;76.37;41.43;;;;;;;1.90;95.45;99717.53;2280405;78;20926;-80
2022/11/28 01:45:39;;;;;;;74.07;42.63;;;;;;;1.92;95.67;99713.36;2280166;78;20923;-80
2022/11/28 01:48:40;;;;;;;76.10;42.20;;;;;;;1.91;95.75;99700.00;2279737;78;20931;-80
2022/11/28 01:51:40;;;;;;;75.27;40.70;;;;;;;1.89;95.60;99696.45;2280024;78;20882;-79
2022/11/28 01:54:40;;;;;;;74.93;41.47;;;;;;;1.84;95.66;99689.73;2279927;78;20935;-80
2022/11/28 01:57:41;;;;;;;70.90;40.23;;;;;;;1.85;95.86;99690.63;2279680;78;20951;-80
2022/11/28 02:00:41;;;;;;;70.77;39.60;;;;;;;1.87;95.95;99690.32;2279888;78;20922;-80
2022/11/28 02:03:42;;;;;;;75.03;41.03;;;;;;;1.89;95.94;99692.59;2280176;78;20921;-80
2022/11/28 02:06:42;;;;;;;75.47;41.17;;;;;;;1.88;95.90;99682.69;2279937;78;20863;-80
2022/11/28 02:09:42;;;;;;;69.30;39.17;;;;;;;1.88;95.93;99681.80;2279820;78;20907;-80
2022/11/28 02:12:43;;;;;;;71.97;39.37;;;;;;;1.88;95.82;99685.26;2279933;78;20867;-80
2022/11/28 02:15:43;;;;;;;71.00;40.17;;;;;;;1.87;95.81;99682.20;2279790;78;20946;-83
2022/11/28 02:18:44;;;;;;;67.23;37.73;;;;;;;1.87;95.80;99677.05;2280131;78;20997;-82
2022/11/28 02:21:44;;;;;;;72.17;38.53;;;;;;;1.88;95.70;99668.52;2280183;78;20930;-81
2022/11/28 02:24:44;;;;;;;69.03;37.33;;;;;;;1.88;95.81;99668.92;2280103;78;20938;-81
2022/11/28 02:27:45;;;;;;;67.03;38.00;;;;;;;1.87;95.54;99670.61;2279825;78;21283;-81
2022/11/28 02:30:45;;;;;;;64.63;36.60;;;;;;;1.85;95.61;99676.06;2279117;78;20887;-80
2022/11/28 02:33:46;;;;;;;65.00;36.57;;;;;;;1.84;95.56;99670.43;2275996;78;20867;-80
2022/11/28 02:36:46;;;;;;;65.40;37.07;;;;;;;1.84;95.50;99661.42;2276189;78;20922;-81
2022/11/28 02:39:46;;;;;;;74.30;37.73;;;;;;;1.82;95.36;99665.59;2276296;78;21301;-80
2022/11/28 02:42:47;;;;;;;68.40;36.57;;;;;;;1.82;95.53;99666.88;2276394;78;20891;-80
2022/11/28 02:45:47;;;;;;;65.87;36.40;;;;;;;1.82;95.56;99660.44;2276488;78;20954;-83
2022/11/28 02:48:48;;;;;;;69.27;36.37;;;;;;;1.83;95.64;99651.92;2276623;78;21354;-80
2022/11/28 02:51:48;;;;;;;64.47;36.37;;;;;;;1.84;95.71;99655.38;2276448;78;20871;-80
2022/11/28 02:54:49;;;;;;;63.90;35.37;;;;;;;1.81;95.54;99652.23;2276447;78;20892;-81
2022/11/28 02:57:49;;;;;;;66.80;35.33;;;;;;;1.77;95.57;99644.23;2276215;78;21315;-81
2022/11/28 03:00:49;;;;;;;61.70;35.23;;;;;;;1.81;95.67;99651.34;2276223;78;20946;-82
2022/11/28 03:03:50;;;;;;;64.87;35.47;;;;;;;1.85;95.78;99652.02;2277045;78;20907;-81
2022/11/28 03:06:50;;;;;;;58.43;34.77;;;;;;;1.86;95.55;99646.95;2276812;78;20926;-80
2022/11/28 03:09:51;;;;;;;63.73;34.97;;;;;;;1.87;95.67;99647.44;2276859;78;20896;-81
2022/11/28 03:12:51;;;;;;;60.47;33.77;;;;;;;1.88;95.48;99645.75;2276471;78;20902;-81
2022/11/28 03:15:51;;;;;;;62.57;34.23;;;;;;;1.88;95.49;99647.04;2276233;78;20989;-82
2022/11/28 03:18:52;;;;;;;57.23;33.70;;;;;;;1.86;95.40;99645.66;2276413;78;20891;-79
2022/11/28 03:21:52;;;;;;;61.60;33.97;;;;;;;1.85;95.45;99652.02;2276345;78;20939;-79
2022/11/28 03:24:53;;;;;;;62.17;34.97;;;;;;;1.86;95.53;99644.38;2276142;78;20898;-80
2022/11/28 03:27:53;;;;;;;57.20;34.27;;;;;;;1.87;95.68;99639.72;2276208;78;20879;-83
2022/11/28 03:30:53;;;;;;;62.53;34.13;;;;;;;1.89;95.52;99641.98;2276588;78;20919;-81
2022/11/28 03:33:54;;;;;;;62.97;33.43;;;;;;;1.89;95.49;99634.26;2280291;78;20887;-82
2022/11/28 03:36:54;;;;;;;61.83;34.53;;;;;;;1.87;95.44;99643.98;2280224;78;21326;-81
2022/11/28 03:39:55;;;;;;;61.37;34.57;;;;;;;1.86;95.60;99634.08;2279601;78;20930;-80
2022/11/28 03:42:55;;;;;;;61.37;32.20;;;;;;;1.86;95.60;99631.51;2280246;78;20863;-78
2022/11/28 03:45:55;;;;;;;57.47;32.47;;;;;;;1.87;95.52;99625.55;2279188;78;21033;-78
2022/11/28 03:48:56;;;;;;;57.97;30.57;;;;;;;1.91;95.78;99630.48;2280141;78;20965;-82
2022/11/28 03:51:56;;;;;;;53.67;30.47;;;;;;;1.94;97.00;99627.20;2280062;78;20891;-82
2022/11/28 03:54:57;;;;;;;58.33;32.83;;;;;;;2.10;95.94;99617.88;2279974;78;20895;-82
2022/11/28 03:57:58;;;;;;;56.93;32.30;;;;;;;2.06;95.43;99608.59;2279968;78;20914;-82
2022/11/28 04:00:58;;;;;;;56.27;32.93;;;;;;;2.04;95.35;99612.37;2280354;78;20922;-81
2022/11/28 04:03:58;;;;;;;54.20;32.33;;;;;;;1.97;95.10;99610.24;2280209;78;20899;-83
2022/11/28 04:06:58;;;;;;;62.63;33.57;;;;;;;1.96;95.31;99617.88;2279834;78;20871;-78
2022/11/28 04:09:59;;;;;;;57.70;32.03;;;;;;;1.95;95.66;99618.68;2279768;78;20938;-80
2022/11/28 04:12:59;;;;;;;54.33;31.23;;;;;;;1.94;95.57;99611.75;2279856;78;21301;-81
2022/11/28 04:16:02;;;;;;;55.90;31.13;;;;;;;1.92;95.81;99614.23;2279865;78;21193;-81
2022/11/28 04:19:04;;;;;;;59.37;32.13;;;;;;;1.95;95.89;99615.70;2279815;78;20906;-81
2022/11/28 04:22:03;;;;;;;56.13;32.17;;;;;;;1.96;95.81;99617.48;2280323;78;20930;-82
2022/11/28 04:25:03;;;;;;;56.30;31.93;;;;;;;2.00;95.93;99614.68;2280035;78;20911;-80
2022/11/28 04:28:04;;;;;;;62.23;32.47;;;;;;;2.04;95.76;99612.37;2280081;78;20891;-81
2022/11/28 04:31:05;;;;;;;55.97;32.03;;;;;;;2.05;95.57;99610.68;2279307;78;20871;-80
2022/11/28 04:34:05;;;;;;;60.10;32.67;;;;;;;2.07;96.90;99609.97;2279197;78;20922;-79
2022/11/28 04:37:05;;;;;;;56.00;30.33;;;;;;;2.09;95.79;99603.62;2279617;78;20883;-82
2022/11/28 04:40:05;;;;;;;51.70;31.47;;;;;;;2.12;96.53;99600.81;2279723;78;20907;-81
2022/11/28 04:43:06;;;;;;;59.53;33.93;;;;;;;2.13;95.43;99604.28;2279633;78;21291;-79
2022/11/28 04:46:06;;;;;;;60.23;32.20;;;;;;;2.06;95.37;99597.00;2280102;78;21006;-82
2022/11/28 04:49:07;;;;;;;60.93;32.27;;;;;;;2.27;100.00;99599.51;2279816;78;20910;-81
2022/11/28 04:52:07;;;;;;;53.27;31.63;;;;;;;2.60;96.25;99604.39;2279552;78;20891;-81
2022/11/28 04:55:07;;;;;;;52.07;31.37;;;;;;;2.47;94.88;99604.08;2278542;78;21035;-79
2022/11/28 04:58:08;;;;;;;64.80;33.27;;;;;;;2.36;94.66;99609.44;2277745;78;20898;-79
2022/11/28 05:01:08;;;;;;;54.80;31.47;;;;;;;2.27;94.65;99604.66;2278661;78;20898;-82
2022/11/28 05:04:09;;;;;;;57.23;32.23;;;;;;;2.19;94.62;99603.34;2278958;78;20886;-80
2022/11/28 05:07:09;;;;;;;63.07;32.57;;;;;;;2.10;94.77;99593.41;2278926;78;21558;-81
2022/11/28 05:10:09;;;;;;;55.57;31.10;;;;;;;2.04;94.92;99590.88;2278242;78;20930;-80
2022/11/28 05:13:10;;;;;;;62.37;31.00;;;;;;;2.03;95.09;99600.69;2278617;78;20903;-80
2022/11/28 05:16:11;;;;;;;58.47;31.33;;;;;;;2.02;95.20;99594.66;2278559;78;20950;-81
2022/11/28 05:19:11;;;;;;;60.70;31.73;;;;;;;2.01;95.26;99592.88;2278411;78;20898;-79
2022/11/28 05:22:11;;;;;;;61.30;33.83;;;;;;;2.00;95.16;99591.50;2278670;78;20907;-79
2022/11/28 05:25:12;;;;;;;58.80;30.63;;;;;;;1.99;95.36;99596.17;2277972;78;20907;-80
2022/11/28 05:28:12;;;;;;;55.57;31.77;;;;;;;2.00;95.39;99601.80;2278452;78;20939;-81
2022/11/28 05:31:12;;;;;;;52.77;31.50;;;;;;;2.00;95.42;99596.66;2278558;78;20915;-81
2022/11/28 05:34:13;;;;;;;53.63;31.13;;;;;;;2.01;95.39;99596.74;2278668;78;20950;-81
2022/11/28 05:37:13;;;;;;;57.47;31.30;;;;;;;2.00;95.40;99594.08;2278988;78;20969;-80
2022/11/28 05:40:14;;;;;;;54.40;31.17;;;;;;;2.00;95.43;99594.08;2279254;78;20903;-80
2022/11/28 05:43:14;;;;;;;51.80;30.57;;;;;;;1.97;95.26;99596.48;2279107;78;21282;-80
2022/11/28 05:46:16;;;;;;;62.00;33.63;;;;;;;2.00;95.44;99601.80;2257886;78;20965;-81
2022/11/28 05:49:19;;;;;;;53.80;30.03;;;;;;;2.02;95.62;99593.77;2278795;78;20918;-81
2022/11/28 05:52:17;;;;;;;50.87;29.07;;;;;;;2.05;95.37;99604.25;2278608;78;21298;-81
2022/11/28 05:55:18;;;;;;;55.03;28.93;;;;;;;2.06;95.54;99597.89;2279077;78;20899;-80
2022/11/28 05:58:18;;;;;;;51.33;29.10;;;;;;;2.07;95.39;99599.67;2278970;78;20934;-79
2022/11/28 06:01:18;;;;;;;51.80;29.07;;;;;;;2.07;95.30;99594.92;2278440;78;20914;-79
2022/11/28 06:04:19;;;;;;;49.57;28.27;;;;;;;2.09;95.43;99595.89;2278411;78;20895;-80
2022/11/28 06:07:19;;;;;;;46.13;28.77;;;;;;;2.13;95.21;99586.25;2279154;78;21262;-80
2022/11/28 06:10:21;;;;;;;46.87;27.80;;;;;;;2.12;95.07;99590.92;2278885;78;20938;-79
2022/11/28 06:13:20;;;;;;;49.10;27.73;;;;;;;2.11;95.17;99586.56;2278649;78;20950;-79
2022/11/28 06:16:21;;;;;;;44.40;26.63;;;;;;;2.12;95.04;99589.63;2277880;78;21005;-80
2022/11/28 06:19:21;;;;;;;45.63;27.70;;;;;;;2.15;95.05;99589.80;2277551;78;20891;-80
2022/11/28 06:22:21;;;;;;;42.87;25.17;;;;;;;2.39;97.09;99586.02;2277117;78;20922;-79
2022/11/28 06:25:22;;;;;;;43.73;25.87;;;;;;;2.44;95.10;99583.70;2277997;78;20915;-81
2022/11/28 06:28:22;;;;;;;46.10;26.47;;;;;;;2.38;94.38;99577.80;2277975;78;21390;-80
2022/11/28 06:31:23;;;;;;;43.63;24.77;;;;;;;2.35;94.26;99581.50;2277693;78;20927;-78
2022/11/28 06:34:23;;;;;;;41.67;25.17;;;;;;;2.35;94.30;99589.63;2277318;78;20891;-80
2022/11/28 06:37:23;;;;;;;42.23;25.20;;;;;;;2.33;93.96;99577.95;2277437;78;21290;-80
2022/11/28 06:40:24;;;;;;;44.03;25.23;;;;;;;2.32;94.01;99577.47;2277614;78;20905;-79
2022/11/28 06:43:24;;;;;;;42.07;24.17;;;;;;;2.38;94.12;99584.25;2277646;78;20903;-79
2022/11/28 06:46:25;;;;;;;58.10;24.77;;;;;;;2.45;94.13;99580.32;2276362;78;21021;-78
2022/11/28 06:49:26;;;;;;;45.07;25.40;;;;;;;2.46;93.66;99583.38;2277434;78;20943;-79
2022/11/28 06:52:26;;;;;;;45.13;25.37;;;;;;;2.48;93.80;99582.66;2277451;78;20981;-78
2022/11/28 06:55:27;;;;;;;46.87;26.67;;;;;;;2.96;95.76;99575.84;2277752;78;20886;-80
2022/11/28 06:58:27;;;;;;;46.07;26.27;;;;;;;2.87;92.90;99579.22;2277873;78;20946;-80
2022/11/28 07:01:27;;;;;;;42.80;25.10;;;;;;;2.73;92.52;99581.06;2279716;78;20907;-81
2022/11/28 07:04:28;;;;;;;42.50;25.47;;;;;;;2.65;92.42;99578.47;2279333;78;21322;-81
2022/11/28 07:07:28;;;;;;;41.93;24.33;;;;;;;2.62;92.44;99577.41;2278882;78;20946;-80
2022/11/28 07:10:29;;;;;;;43.60;25.57;;;;;;;2.60;92.57;99577.70;2277763;78;20918;-81
2022/11/28 07:13:29;;;;;;;38.67;24.17;;;;;;;2.64;92.70;99580.56;2277908;78;20890;-81
2022/11/28 07:16:30;;;;;;;38.03;22.73;;;;;;;2.63;92.26;99574.03;2277105;78;20965;-82
2022/11/28 07:19:30;;;;;;;40.97;24.83;;;;;;;2.58;91.76;99569.88;2277694;78;20946;-82
2022/11/28 07:22:30;;;;;;;37.20;24.43;;;;;;;2.51;91.89;99570.35;2278746;78;20883;-81
2022/11/28 07:25:31;;;;;;;40.30;25.50;;;;;;;2.48;92.14;99567.20;2277663;78;20914;-82
2022/11/28 07:28:31;;;;;;;41.50;25.00;;;;;;;2.53;92.27;99569.63;2278763;78;20915;-80
2022/11/28 07:31:32;;;;;;;44.70;25.70;;;;;;;2.63;92.08;99563.72;2278796;78;20945;-81
2022/11/28 07:34:32;;;;;;;40.67;24.33;;;;;;;2.63;92.08;99563.72;2274400;78;20934;-80
2022/11/28 07:37:32;;;;;;;38.00;24.13;;;;;;;2.66;91.92;99562.59;2273862;78;20958;-80
2022/11/28 07:40:33;;;;;;;38.63;22.87;;;;;;;2.65;91.53;99553.09;2274342;78;20911;-80
2022/11/28 07:43:33;;;;;;;40.57;24.03;;;;;;;2.66;91.31;99557.44;2274357;78;20915;-79
2022/11/28 07:46:34;;;;;;;39.73;24.37;;;;;;;2.69;91.29;99558.90;2273432;78;21076;-80
2022/11/28 07:49:34;;;;;;;39.13;23.00;;;;;;;2.70;91.08;99555.52;2273599;78;20954;-80
2022/11/28 07:52:35;;;;;;;39.43;23.93;;;;;;;2.69;90.79;99558.90;2273844;78;20911;-80
2022/11/28 07:55:35;;;;;;;40.30;23.67;;;;;;;2.68;90.79;99551.97;2274374;78;20891;-80
2022/11/28 07:58:37;;;;;;;39.87;24.60;;;;;;;2.69;90.52;99550.77;2274579;78;21341;-81
2022/11/28 08:01:36;;;;;;;41.73;25.30;;;;;;;2.68;90.65;99554.55;2274567;78;20994;-80
2022/11/28 08:04:36;;;;;;;41.87;25.40;;;;;;;2.66;90.23;99547.13;2275004;78;20910;-80
2022/11/28 08:07:37;;;;;;;36.83;23.27;;;;;;;2.65;90.44;99546.65;2274581;78;20907;-80
2022/11/28 08:10:37;;;;;;;43.03;24.87;;;;;;;2.68;90.43;99542.95;2274474;78;20911;-79
2022/11/28 08:13:37;;;;;;;39.03;23.97;;;;;;;2.69;90.25;99548.59;2273817;78;21321;-81
2022/11/28 08:16:40;;;;;;;44.27;25.73;;;;;;;2.72;89.93;99534.58;2274374;78;20962;-79
2022/11/28 08:19:38;;;;;;;36.90;22.30;;;;;;;2.73;89.60;99543.68;2273807;78;20957;-81
2022/11/28 08:22:39;;;;;;;41.67;23.43;;;;;;;2.75;89.58;99545.05;2274071;78;20872;-80
2022/11/28 08:25:40;;;;;;;35.07;21.13;;;;;;;2.72;89.02;99535.45;2274448;78;21306;-80
2022/11/28 08:28:40;;;;;;;46.53;22.97;;;;;;;2.72;89.15;99552.22;2274652;78;20891;-80
2022/11/28 08:31:40;;;;;;;36.70;22.00;;;;;;;2.75;89.40;99540.78;2274955;78;20983;-81
2022/11/28 08:34:41;;;;;;;35.17;21.17;;;;;;;2.75;89.27;99536.91;2278338;78;20950;-80
2022/11/28 08:37:41;;;;;;;35.23;20.90;;;;;;;2.79;89.05;99537.96;2277662;78;20927;-80
2022/11/28 08:40:42;;;;;;;43.03;22.77;;;;;;;2.84;89.17;99540.38;2278078;78;20894;-80
2022/11/28 08:43:42;;;;;;;32.67;19.57;;;;;;;2.88;88.39;99538.45;2277706;78;21350;-81
2022/11/28 08:46:42;;;;;;;33.67;20.50;;;;;;;2.87;87.34;99539.26;2277129;78;20998;-81
2022/11/28 08:49:43;;;;;;;33.63;20.10;;;;;;;2.89;88.51;99535.06;2278117;78;20930;-79
2022/11/28 08:52:43;;;;;;;30.23;18.67;;;;;;;2.95;88.45;99535.39;2278239;78;20903;-80
2022/11/28 08:55:44;;;;;;;27.80;17.43;;;;;;;3.03;87.29;99533.21;2277942;78;21666;-79
2022/11/28 08:58:44;;;;;;;28.40;17.87;;;;;;;3.03;87.29;99533.21;2276301;78;20946;-79
2022/11/28 09:01:44;;;;;;;26.03;17.90;;;;;;;3.01;86.34;99531.84;2276490;78;20991;-79
2022/11/28 09:04:45;;;;;;;27.60;18.33;;;;;;;3.00;86.88;99530.06;2276063;78;20879;-81
2022/11/28 09:07:45;;;;;;;31.13;18.80;;;;;;;3.07;87.39;99524.83;2276594;78;20887;-80
2022/11/28 09:10:46;;;;;;;25.43;15.90;;;;;;;3.12;86.55;99526.84;2276141;78;20867;-80
2022/11/28 09:13:46;;;;;;;28.10;18.90;;;;;;;3.15;85.73;99518.37;2276351;78;20907;-80
2022/11/28 09:16:46;;;;;;;26.97;17.03;;;;;;;3.17;85.85;99516.76;2277204;78;20974;-79
2022/11/28 09:19:48;;;;;;;29.63;17.50;;;;;;;3.16;85.48;99512.00;2276953;78;21441;-80
2022/11/28 09:22:47;;;;;;;26.53;17.30;;;;;;;3.14;85.49;99503.70;2276843;78;20934;-80
2022/11/28 09:25:48;;;;;;;27.00;17.43;;;;;;;3.22;85.90;99500.22;2276663;78;20911;-80
2022/11/28 09:28:48;;;;;;;27.70;16.97;;;;;;;3.25;84.58;99494.81;2276275;78;20914;-80
2022/11/28 09:31:48;;;;;;;29.37;17.33;;;;;;;3.27;84.77;99502.62;2276231;78;21259;-81
2022/11/28 09:34:50;;;;;;;44.60;17.43;;;;;;;3.30;85.02;99488.59;2272701;78;20997;-79
2022/11/28 09:37:49;;;;;;;27.70;16.40;;;;;;;3.36;84.93;99487.61;2272667;78;20970;-80
2022/11/28 09:40:50;;;;;;;28.53;16.73;;;;;;;3.43;84.97;99484.53;2274302;78;20977;-81
2022/11/28 09:43:51;;;;;;;27.07;16.20;;;;;;;3.55;84.12;99476.55;2274005;78;20871;-79
2022/11/28 09:46:51;;;;;;;29.57;16.17;;;;;;;3.55;84.12;99476.55;2274767;78;20969;-79
2022/11/28 09:49:51;;;;;;;26.30;15.67;;;;;;;3.58;83.91;99478.88;2274353;78;21310;-81
2022/11/28 09:52:51;;;;;;;23.90;16.13;;;;;;;3.63;83.63;99475.22;2275315;78;20926;-81
2022/11/28 09:55:52;;;;;;;24.80;15.50;;;;;;;3.65;83.51;99469.73;2275149;78;20918;-78
2022/11/28 09:58:52;;;;;;;28.20;15.53;;;;;;;3.71;83.91;99465.75;2274413;78;20915;-81
2022/11/28 10:01:52;;;;;;;23.47;15.47;;;;;;;3.83;84.08;99462.88;2275197;78;20926;-81
2022/11/28 10:04:53;;;;;;;25.73;16.10;;;;;;;3.92;83.09;99459.44;2276120;78;20950;-80
2022/11/28 10:07:53;;;;;;;24.40;15.57;;;;;;;3.98;83.05;99461.02;2275559;78;20899;-79
2022/11/28 10:10:54;;;;;;;22.63;14.97;;;;;;;4.04;83.26;99457.84;2276028;78;20914;-81
2022/11/28 10:13:54;;;;;;;21.20;14.50;;;;;;;4.10;82.66;99452.96;2275372;78;21278;-80
2022/11/28 10:16:55;;;;;;;24.80;15.23;;;;;;;4.07;80.94;99446.36;2274094;78;20950;-81
2022/11/28 10:19:55;;;;;;;25.00;15.00;;;;;;;4.02;80.88;99446.14;2275053;78;20914;-81
2022/11/28 10:22:55;;;;;;;24.67;15.33;;;;;;;4.00;81.46;99439.14;2273329;78;21059;-79
2022/11/28 10:25:56;;;;;;;22.10;14.37;;;;;;;4.05;81.47;99440.23;2273322;78;20914;-81
2022/11/28 10:28:59;;;;;;;24.27;15.10;;;;;;;4.10;81.47;99436.17;2273591;78;20910;-79
2022/11/28 10:32:00;;;;;;;21.77;14.33;;;;;;;4.17;81.49;99436.93;2273987;78;20907;-81
2022/11/28 10:35:00;;;;;;;24.37;15.13;;;;;;;4.22;81.47;99428.98;2238299;78;20945;-79
2022/11/28 10:38:00;;;;;;;21.90;13.57;;;;;;;4.27;80.82;99431.38;2233640;79;20913;-81
2022/11/28 10:41:01;;;;;;;39.77;15.93;;;;;;;4.31;80.48;99433.69;2233206;79;20926;-80
2022/11/28 10:44:01;;;;;;;25.27;15.27;;;;;;;4.32;80.70;99433.76;2234089;79;20911;-81
2022/11/28 10:47:02;;;;;;;31.73;15.10;;;;;;;4.34;79.96;99429.58;2232254;79;21700;-80
2022/11/28 10:50:02;;;;;;;22.93;15.13;;;;;;;4.33;80.54;99426.48;2232841;79;20863;-80
2022/11/28 10:53:02;;;;;;;22.63;15.30;;;;;;;4.38;80.32;99427.61;2232856;78;20986;-80
2022/11/28 10:56:03;;;;;;;23.63;14.13;;;;;;;4.35;79.41;99430.47;2232764;79;21372;-80
2022/11/28 10:59:03;;;;;;;19.33;13.33;;;;;;;4.32;78.91;99423.83;2232455;79;21648;-80
2022/11/28 11:02:03;;;;;;;23.33;14.40;;;;;;;4.29;79.89;99423.28;2232936;79;21325;-80
2022/11/28 11:05:04;;;;;;;51.43;14.90;;;;;;;4.28;79.76;99423.21;2232541;79;21381;-79
2022/11/28 11:08:04;;;;;;;22.80;15.03;;;;;;;4.33;80.31;99426.48;2232401;79;20886;-81
2022/11/28 11:11:06;;;;;;;21.93;14.77;;;;;;;4.34;79.79;99419.24;2233078;79;20941;-80
2022/11/28 11:14:05;;;;;;;24.27;14.77;;;;;;;4.35;79.64;99426.18;2233048;79;20945;-80
2022/11/28 11:17:05;;;;;;;23.47;15.00;;;;;;;4.35;78.80;99425.30;2232034;78;20958;-80
2022/11/28 11:20:06;;;;;;;23.20;14.87;;;;;;;4.31;79.32;99424.64;2232335;79;20922;-81
2022/11/28 11:23:06;;;;;;;25.43;13.20;;;;;;;4.32;79.80;99423.83;2232094;79;21294;-80
2022/11/28 11:26:10;;;;;;;21.17;14.20;;;;;;;4.35;78.99;99426.59;2231903;79;20910;-81
2022/11/28 11:29:07;;;;;;;21.27;14.37;;;;;;;4.33;79.27;99423.02;2231332;80;20923;-81
2022/11/28 11:32:08;;;;;;;33.77;16.50;;;;;;;4.32;79.14;99419.95;2231143;78;20956;-77
2022/11/28 11:35:08;;;;;;;22.40;14.53;;;;;;;4.35;79.73;99419.72;2230626;78;20966;-80
2022/11/28 11:38:08;;;;;;;21.03;13.67;;;;;;;4.41;79.05;99417.81;2232254;79;21029;-81
2022/11/28 11:41:09;;;;;;;30.60;15.27;;;;;;;4.41;79.55;99418.70;2232678;79;20917;-82
2022/11/28 11:44:09;;;;;;;19.83;13.60;;;;;;;4.64;82.35;99414.97;2232556;79;20930;-78
2022/11/28 11:47:10;;;;;;;48.77;15.67;;;;;;;4.83;80.04;99410.19;2232605;79;21428;-81
2022/11/28 11:50:10;;;;;;;22.17;14.93;;;;;;;4.84;78.92;99411.55;2232263;80;20999;-81
2022/11/28 11:53:10;;;;;;;24.77;14.43;;;;;;;4.73;77.90;99405.91;2232452;79;20882;-81
2022/11/28 11:56:11;;;;;;;20.77;13.47;;;;;;;4.68;78.89;99408.70;2232236;79;20975;-80
2022/11/28 11:59:11;;;;;;;38.23;15.57;;;;;;;4.66;77.57;99410.74;2231957;79;20968;-80
2022/11/28 12:02:12;;;;;;;21.70;14.00;;;;;;;4.67;79.00;99410.81;2232100;79;21326;-81
2022/11/28 12:05:12;;;;;;;60.13;16.73;;;;;;;4.70;78.40;99410.06;2232814;78;20894;-81
2022/11/28 12:08:12;;;;;;;22.00;14.60;;;;;;;4.64;78.80;99411.09;2232485;79;20906;-80
2022/11/28 12:11:13;;;;;;;20.03;14.17;;;;;;;4.64;78.65;99404.62;2232995;79;20918;-80
2022/11/28 12:14:13;;;;;;;22.10;14.80;;;;;;;4.65;78.73;99398.22;2233256;80;20922;-79
2022/11/28 12:17:14;;;;;;;25.00;15.57;;;;;;;4.64;78.46;99400.33;2232232;79;21005;-81
2022/11/28 12:20:14;;;;;;;37.13;15.77;;;;;;;4.63;78.67;99406.73;2231913;79;20898;-82
2022/11/28 12:23:15;;;;;;;21.43;14.33;;;;;;;4.66;79.11;99402.98;2231827;79;21383;-81
2022/11/28 12:26:15;;;;;;;22.53;13.63;;;;;;;4.67;78.36;99396.59;2232001;80;20985;-81
2022/11/28 12:29:15;;;;;;;24.13;15.37;;;;;;;4.64;78.50;99396.86;2231904;79;20882;-81
2022/11/28 12:32:16;;;;;;;21.17;13.43;;;;;;;4.61;78.58;99396.73;2233052;80;20949;-82
2022/11/28 12:35:16;;;;;;;23.90;13.53;;;;;;;4.56;78.87;99398.23;2233412;78;20925;-82
2022/11/28 12:38:17;;;;;;;21.23;13.80;;;;;;;4.56;78.67;99404.69;2233230;80;20997;-81
2022/11/28 12:41:17;;;;;;;22.40;13.73;;;;;;;4.54;78.55;99401.16;2232624;79;20949;-80
2022/11/28 12:44:17;;;;;;;34.13;14.00;;;;;;;4.51;78.59;99401.02;2232982;79;20957;-82
2022/11/28 12:47:18;;;;;;;20.60;13.47;;;;;;;4.47;78.16;99394.42;2232353;79;20985;-81
2022/11/28 12:50:18;;;;;;;22.37;13.73;;;;;;;4.41;78.00;99398.02;2232329;80;20913;-80
2022/11/28 12:53:19;;;;;;;24.33;13.73;;;;;;;4.36;78.81;99394.34;2232180;79;20902;-80
2022/11/28 12:56:22;;;;;;;22.20;13.50;;;;;;;4.35;78.36;99394.28;2231754;80;20953;-81
2022/11/28 12:59:24;;;;;;;21.87;13.83;;;;;;;4.30;78.88;99397.03;2231904;79;21527;-80
2022/11/28 13:02:24;;;;;;;23.23;14.33;;;;;;;4.27;78.99;99396.48;2231599;79;20901;-80
2022/11/28 13:05:24;;;;;;;22.77;14.03;;;;;;;4.26;78.87;99397.30;2231893;79;20914;-79
2022/11/28 13:08:24;;;;;;;22.90;13.63;;;;;;;4.26;78.99;99394.72;2231851;79;20914;-79
2022/11/28 13:11:27;;;;;;;22.73;12.27;;;;;;;4.23;78.85;99391.99;2231125;79;20934;-81
2022/11/28 13:14:28;;;;;;;19.87;13.67;;;;;;;4.23;78.96;99388.52;2230831;79;20907;-79
2022/11/28 13:17:29;;;;;;;23.70;13.70;;;;;;;4.17;78.94;99391.72;2231184;79;20985;-79
2022/11/28 13:20:29;;;;;;;21.17;13.87;;;;;;;4.14;79.08;99392.87;2230633;79;20891;-72
2022/11/28 13:23:29;;;;;;;21.83;13.23;;;;;;;4.13;79.58;99383.34;2230995;80;20914;-81
2022/11/28 13:26:29;;;;;;;20.93;13.53;;;;;;;4.14;79.73;99386.00;2231920;80;21263;-81
2022/11/28 13:29:30;;;;;;;23.43;13.70;;;;;;;4.14;79.72;99394.16;2231597;79;21290;-81
2022/11/28 13:32:30;;;;;;;19.67;13.20;;;;;;;4.10;79.95;99383.20;2232188;79;20901;-81
2022/11/28 13:35:31;;;;;;;24.13;14.97;;;;;;;4.19;80.43;99389.20;2231749;78;20966;-81
2022/11/28 13:38:31;;;;;;;26.20;15.57;;;;;;;4.11;79.05;99389.73;2231818;79;20918;-80
2022/11/28 13:41:32;;;;;;;24.47;15.57;;;;;;;3.95;79.72;99386.38;2231793;79;20906;-80
2022/11/28 13:44:32;;;;;;;26.13;14.43;;;;;;;3.86;80.14;99388.53;2232155;79;20914;-81
2022/11/28 13:47:33;;;;;;;68.33;17.93;;;;;;;3.78;80.41;99384.30;2231470;79;20949;-82
2022/11/28 13:50:33;;;;;;;28.03;16.17;;;;;;;3.72;80.53;99390.06;2231917;79;20883;-79
2022/11/28 13:53:33;;;;;;;23.43;15.70;;;;;;;3.62;81.23;99386.56;2232264;79;21562;-78
2022/11/28 13:56:34;;;;;;;28.23;15.70;;;;;;;3.62;81.23;99386.56;2231383;79;20918;-80